sensor_id;sensor_type;location;lat;lon;timestamp;pressure;altitude;pressure_sealevel;temperature;humidity
5703;BME280;2876;51.738;10.050;2022-12-24T00:04:32;98027.41;;;10.60;100.00
5703;BME280;2876;51.738;10.050;2022-12-24T00:10:34;98026.22;;;10.44;100.00
5703;BME280;2876;51.738;10.050;2022-12-24T00:16:35;98026.34;;;10.37;100.00
5703;BME280;2876;51.738;10.050;2022-12-24T00:22:37;98034.72;;;10.29;100.00
5703;BME280;2876;51.738;10.050;2022-12-24T00:28:40;98050.44;;;10.07;100.00
5703;BME280;2876;51.738;10.050;2022-12-24T00:34:42;98046.63;;;10.15;100.00
5703;BME280;2876;51.738;10.050;2022-12-24T00:40:43;98056.78;;;10.13;100.00
5703;BME280;2876;51.738;10.050;2022-12-24T00:46:45;98062.03;;;10.20;100.00
5703;BME280;2876;51.738;10.050;2022-12-24T00:52:48;98068.63;;;10.05;100.00
5703;BME280;2876;51.738;10.050;2022-12-24T00:58:50;98082.34;;;9.97;100.00
5703;BME280;2876;51.738;10.050;2022-12-24T01:04:52;98087.75;;;10.09;100.00
5703;BME280;2876;51.738;10.050;2022-12-24T01:11:13;98101.22;;;10.02;100.00
5703;BME280;2876;51.738;10.050;2022-12-24T01:17:15;98103.19;;;9.95;100.00
5703;BME280;2876;51.738;10.050;2022-12-24T01:23:16;98130.69;;;9.84;100.00
5703;BME280;2876;51.738;10.050;2022-12-24T01:29:19;98139.03;;;9.94;100.00
5703;BME280;2876;51.738;10.050;2022-12-24T01:35:21;98148.34;;;9.91;100.00
5703;BME280;2876;51.738;10.050;2022-12-24T01:41:23;98172.59;;;9.97;100.00
5703;BME280;2876;51.738;10.050;2022-12-24T01:47:44;98173.84;;;9.76;100.00
5703;BME280;2876;51.738;10.050;2022-12-24T01:53:56;98186.56;;;9.80;100.00
5703;BME280;2876;51.738;10.050;2022-12-24T02:00:05;98198.75;;;9.76;100.00
5703;BME280;2876;51.738;10.050;2022-12-24T02:06:07;98207.84;;;9.75;100.00
5703;BME280;2876;51.738;10.050;2022-12-24T02:12:12;98215.66;;;9.77;100.00
5703;BME280;2876;51.738;10.050;2022-12-24T02:19:09;98222.78;;;9.64;100.00
5703;BME280;2876;51.738;10.050;2022-12-24T02:31:32;98240.78;;;9.76;100.00
5703;BME280;2876;51.738;10.050;2022-12-24T02:38:00;98245.78;;;9.72;100.00
5703;BME280;2876;51.738;10.050;2022-12-24T02:44:03;98246.75;;;9.78;100.00
5703;BME280;2876;51.738;10.050;2022-12-24T02:50:08;98267.00;;;9.67;100.00
5703;BME280;2876;51.738;10.050;2022-12-24T03:15:46;98294.94;;;9.78;100.00
5703;BME280;2876;51.738;10.050;2022-12-24T03:21:49;98299.72;;;9.94;100.00
5703;BME280;2876;51.738;10.050;2022-12-24T03:27:53;98310.91;;;9.91;100.00
5703;BME280;2876;51.738;10.050;2022-12-24T03:33:57;98327.81;;;9.85;100.00
5703;BME280;2876;51.738;10.050;2022-12-24T03:39:58;98342.44;;;9.64;100.00
5703;BME280;2876;51.738;10.050;2022-12-24T03:46:06;98353.19;;;9.57;100.00
5703;BME280;2876;51.738;10.050;2022-12-24T03:52:08;98347.16;;;9.62;100.00
5703;BME280;2876;51.738;10.050;2022-12-24T03:58:13;98359.34;;;9.58;100.00
5703;BME280;2876;51.738;10.050;2022-12-24T04:04:15;98369.97;;;9.71;100.00
5703;BME280;2876;51.738;10.050;2022-12-24T04:10:17;98380.56;;;9.84;98.27
5703;BME280;2876;51.738;10.050;2022-12-24T04:16:19;98374.81;;;9.81;97.19
5703;BME280;2876;51.738;10.050;2022-12-24T04:22:21;98379.59;;;9.79;96.45
5703;BME280;2876;51.738;10.050;2022-12-24T04:28:23;98390.72;;;9.76;96.24
5703;BME280;2876;51.738;10.050;2022-12-24T04:34:26;98398.94;;;9.81;95.68
5703;BME280;2876;51.738;10.050;2022-12-24T04:40:28;98406.97;;;9.81;94.92
5703;BME280;2876;51.738;10.050;2022-12-24T04:46:30;98417.31;;;9.77;95.12
5703;BME280;2876;51.738;10.050;2022-12-24T04:52:33;98411.88;;;9.84;94.05
5703;BME280;2876;51.738;10.050;2022-12-24T04:58:36;98416.09;;;9.73;94.75
5703;BME280;2876;51.738;10.050;2022-12-24T05:04:38;98414.88;;;9.69;95.04
5703;BME280;2876;51.738;10.050;2022-12-24T05:10:40;98424.78;;;9.69;94.36
5703;BME280;2876;51.738;10.050;2022-12-24T05:16:42;98428.94;;;9.58;94.87
5703;BME280;2876;51.738;10.050;2022-12-24T05:22:44;98439.47;;;9.53;93.91
5703;BME280;2876;51.738;10.050;2022-12-24T05:29:08;98461.72;;;9.53;94.47
5703;BME280;2876;51.738;10.050;2022-12-24T05:35:12;98469.09;;;9.64;93.02
5703;BME280;2876;51.738;10.050;2022-12-24T05:41:14;98475.31;;;9.58;92.86
5703;BME280;2876;51.738;10.050;2022-12-24T05:47:17;98474.28;;;9.53;92.95
5703;BME280;2876;51.738;10.050;2022-12-24T05:53:19;98489.75;;;9.51;92.82
5703;BME280;2876;51.738;10.050;2022-12-24T05:59:21;98487.66;;;9.53;91.59
5703;BME280;2876;51.738;10.050;2022-12-24T06:05:23;98494.13;;;9.38;91.86
5703;BME280;2876;51.738;10.050;2022-12-24T06:11:27;98515.53;;;9.38;91.90
5703;BME280;2876;51.738;10.050;2022-12-24T06:17:29;98517.38;;;9.38;91.69
5703;BME280;2876;51.738;10.050;2022-12-24T06:23:34;98524.19;;;9.40;91.11
5703;BME280;2876;51.738;10.050;2022-12-24T06:29:36;98528.31;;;9.36;91.50
5703;BME280;2876;51.738;10.050;2022-12-24T06:35:38;98516.78;;;9.29;91.69
5703;BME280;2876;51.738;10.050;2022-12-24T06:41:40;98530.19;;;9.29;91.02
5703;BME280;2876;51.738;10.050;2022-12-24T06:47:42;98547.44;;;9.33;90.91
5703;BME280;2876;51.738;10.050;2022-12-24T06:53:44;98555.72;;;9.25;91.30
5703;BME280;2876;51.738;10.050;2022-12-24T06:59:46;98572.81;;;9.11;91.87
5703;BME280;2876;51.738;10.050;2022-12-24T07:05:48;98586.41;;;9.09;92.31
5703;BME280;2876;51.738;10.050;2022-12-24T07:11:50;98587.47;;;9.08;92.77
5703;BME280;2876;51.738;10.050;2022-12-24T07:17:52;98593.00;;;8.94;93.07
5703;BME280;2876;51.738;10.050;2022-12-24T07:23:55;98597.72;;;8.98;93.52
5703;BME280;2876;51.738;10.050;2022-12-24T07:29:57;98601.22;;;8.99;93.29
5703;BME280;2876;51.738;10.050;2022-12-24T07:36:02;98611.31;;;9.03;93.14
5703;BME280;2876;51.738;10.050;2022-12-24T07:42:04;98622.22;;;9.08;92.63
5703;BME280;2876;51.738;10.050;2022-12-24T07:48:08;98626.53;;;9.03;93.07
5703;BME280;2876;51.738;10.050;2022-12-24T07:54:10;98627.16;;;9.05;93.49
5703;BME280;2876;51.738;10.050;2022-12-24T08:00:12;98648.31;;;9.33;92.72
5703;BME280;2876;51.738;10.050;2022-12-24T08:06:14;98659.44;;;9.03;94.54
5703;BME280;2876;51.738;10.050;2022-12-24T08:12:16;98652.69;;;8.87;95.71
5703;BME280;2876;51.738;10.050;2022-12-24T08:18:18;98650.41;;;8.98;95.57
5703;BME280;2876;51.738;10.050;2022-12-24T08:24:20;98673.66;;;9.04;96.25
5703;BME280;2876;51.738;10.050;2022-12-24T08:30:22;98669.97;;;9.05;97.46
5703;BME280;2876;51.738;10.050;2022-12-24T08:36:24;98680.84;;;9.30;96.69
5703;BME280;2876;51.738;10.050;2022-12-24T08:42:26;98672.81;;;9.30;96.92
5703;BME280;2876;51.738;10.050;2022-12-24T08:48:28;98682.66;;;9.56;96.29
5703;BME280;2876;51.738;10.050;2022-12-24T08:54:30;98689.88;;;9.49;96.67
5703;BME280;2876;51.738;10.050;2022-12-24T09:00:32;98697.50;;;9.38;95.63
5703;BME280;2876;51.738;10.050;2022-12-24T09:06:35;98701.00;;;9.39;96.32
5703;BME280;2876;51.738;10.050;2022-12-24T09:12:37;98720.53;;;9.66;96.35
5703;BME280;2876;51.738;10.050;2022-12-24T09:18:39;98724.84;;;9.67;97.12
5703;BME280;2876;51.738;10.050;2022-12-24T09:24:41;98744.03;;;9.44;98.83
5703;BME280;2876;51.738;10.050;2022-12-24T09:30:43;98755.75;;;9.30;100.00
5703;BME280;2876;51.738;10.050;2022-12-24T09:36:45;98751.22;;;9.70;98.53
5703;BME280;2876;51.738;10.050;2022-12-24T09:42:52;98765.25;;;9.59;99.61
5703;BME280;2876;51.738;10.050;2022-12-24T09:49:00;98770.78;;;9.71;99.21
5703;BME280;2876;51.738;10.050;2022-12-24T09:55:26;98780.25;;;9.86;97.54
5703;BME280;2876;51.738;10.050;2022-12-24T10:01:31;98779.81;;;9.89;98.33
5703;BME280;2876;51.738;10.050;2022-12-24T10:08:12;98778.41;;;9.87;98.37
5703;BME280;2876;51.738;10.050;2022-12-24T10:21:46;98798.63;;;9.63;99.66
5703;BME280;2876;51.738;10.050;2022-12-24T10:27:54;98808.91;;;9.73;99.82
5703;BME280;2876;51.738;10.050;2022-12-24T10:34:02;98811.97;;;9.70;99.99
5703;BME280;2876;51.738;10.050;2022-12-24T10:40:12;98822.06;;;9.81;99.06
5703;BME280;2876;51.738;10.050;2022-12-24T10:52:23;98829.91;;;9.82;99.27
5703;BME280;2876;51.738;10.050;2022-12-24T10:58:28;98824.94;;;10.06;97.98
5703;BME280;2876;51.738;10.050;2022-12-24T11:04:32;98827.59;;;10.12;98.44
5703;BME280;2876;51.738;10.050;2022-12-24T11:11:12;98839.13;;;10.26;96.52
5703;BME280;2876;51.738;10.050;2022-12-24T11:17:21;98836.63;;;10.38;96.08
5703;BME280;2876;51.738;10.050;2022-12-24T11:23:24;98841.94;;;10.58;96.39
5703;BME280;2876;51.738;10.050;2022-12-24T11:29:27;98833.88;;;10.58;97.12
5703;BME280;2876;51.738;10.050;2022-12-24T11:35:32;98837.69;;;10.37;97.86
5703;BME280;2876;51.738;10.050;2022-12-24T11:41:40;98835.41;;;10.34;97.93
5703;BME280;2876;51.738;10.050;2022-12-24T11:47:42;98836.25;;;10.28;98.51
5703;BME280;2876;51.738;10.050;2022-12-24T11:54:23;98843.44;;;10.34;97.37
5703;BME280;2876;51.738;10.050;2022-12-24T12:00:25;98831.91;;;10.33;97.60
5703;BME280;2876;51.738;10.050;2022-12-24T12:06:47;98837.41;;;10.52;96.43
5703;BME280;2876;51.738;10.050;2022-12-24T12:13:13;98851.53;;;10.85;94.21
5703;BME280;2876;51.738;10.050;2022-12-24T12:19:18;98854.00;;;10.87;92.93
5703;BME280;2876;51.738;10.050;2022-12-24T12:25:49;98864.69;;;11.00;91.77
5703;BME280;2876;51.738;10.050;2022-12-24T12:31:59;98865.25;;;11.09;91.04
5703;BME280;2876;51.738;10.050;2022-12-24T12:38:10;98855.09;;;11.17;90.16
5703;BME280;2876;51.738;10.050;2022-12-24T12:44:42;98880.66;;;11.27;88.59
5703;BME280;2876;51.738;10.050;2022-12-24T12:51:04;98871.75;;;11.26;88.26
5703;BME280;2876;51.738;10.050;2022-12-24T12:57:12;98876.13;;;11.21;88.47
5703;BME280;2876;51.738;10.050;2022-12-24T13:03:43;98891.06;;;11.03;88.88
5703;BME280;2876;51.738;10.050;2022-12-24T13:10:20;98891.34;;;10.88;89.71
5703;BME280;2876;51.738;10.050;2022-12-24T13:23:20;98908.78;;;11.17;86.92
5703;BME280;2876;51.738;10.050;2022-12-24T13:35:57;98921.19;;;11.12;86.60
5703;BME280;2876;51.738;10.050;2022-12-24T13:42:00;98928.47;;;10.98;86.06
5703;BME280;2876;51.738;10.050;2022-12-24T13:54:11;98931.31;;;11.03;85.83
5703;BME280;2876;51.738;10.050;2022-12-24T14:06:40;98942.16;;;10.77;86.51
5703;BME280;2876;51.738;10.050;2022-12-24T14:12:51;98950.19;;;10.83;86.68
5703;BME280;2876;51.738;10.050;2022-12-24T14:25:22;98970.22;;;10.74;86.97
5703;BME280;2876;51.738;10.050;2022-12-24T14:31:24;98979.28;;;10.80;85.99
5703;BME280;2876;51.738;10.050;2022-12-24T14:37:26;98989.19;;;10.79;86.02
5703;BME280;2876;51.738;10.050;2022-12-24T14:44:06;98991.09;;;10.59;86.96
5703;BME280;2876;51.738;10.050;2022-12-24T14:56:38;99006.38;;;10.32;88.59
5703;BME280;2876;51.738;10.050;2022-12-24T15:02:50;99025.53;;;10.42;87.73
5703;BME280;2876;51.738;10.050;2022-12-24T15:08:52;99021.34;;;10.06;88.72
5703;BME280;2876;51.738;10.050;2022-12-24T15:14:55;99031.81;;;9.88;89.81
5703;BME280;2876;51.738;10.050;2022-12-24T15:21:02;99045.97;;;9.69;89.50
5703;BME280;2876;51.738;10.050;2022-12-24T15:27:19;99049.56;;;8.72;92.59
5703;BME280;2876;51.738;10.050;2022-12-24T15:33:21;99056.03;;;8.56;94.92
5703;BME280;2876;51.738;10.050;2022-12-24T15:39:23;99069.47;;;8.41;95.90
5703;BME280;2876;51.738;10.050;2022-12-24T15:45:30;99077.72;;;8.68;96.52
5703;BME280;2876;51.738;10.050;2022-12-24T15:51:39;99085.97;;;9.35;93.95
5703;BME280;2876;51.738;10.050;2022-12-24T15:57:41;99095.34;;;9.53;92.22
5703;BME280;2876;51.738;10.050;2022-12-24T16:09:51;99102.38;;;9.54;90.77
5703;BME280;2876;51.738;10.050;2022-12-24T16:16:18;99098.97;;;9.38;90.64
5703;BME280;2876;51.738;10.050;2022-12-24T16:22:22;99112.84;;;9.21;91.37
5703;BME280;2876;51.738;10.050;2022-12-24T16:28:35;99109.69;;;9.04;92.17
5703;BME280;2876;51.738;10.050;2022-12-24T16:34:37;99126.00;;;8.87;92.01
5703;BME280;2876;51.738;10.050;2022-12-24T16:40:40;99118.41;;;8.63;93.54
5703;BME280;2876;51.738;10.050;2022-12-24T16:46:42;99125.41;;;8.64;94.15
5703;BME280;2876;51.738;10.050;2022-12-24T16:52:44;99126.59;;;8.40;94.27
5703;BME280;2876;51.738;10.050;2022-12-24T16:58:46;99137.16;;;8.27;95.17
5703;BME280;2876;51.738;10.050;2022-12-24T17:04:49;99147.84;;;8.12;94.47
5703;BME280;2876;51.738;10.050;2022-12-24T17:10:51;99154.28;;;7.52;95.77
5703;BME280;2876;51.738;10.050;2022-12-24T17:16:53;99167.84;;;7.12;97.89
5703;BME280;2876;51.738;10.050;2022-12-24T17:22:55;99166.13;;;7.20;99.47
5703;BME280;2876;51.738;10.050;2022-12-24T17:28:57;99184.94;;;7.41;98.36
5703;BME280;2876;51.738;10.050;2022-12-24T17:34:59;99188.09;;;7.07;97.76
5703;BME280;2876;51.738;10.050;2022-12-24T17:41:06;99185.94;;;6.88;98.01
5703;BME280;2876;51.738;10.050;2022-12-24T17:47:08;99181.72;;;6.47;98.62
5703;BME280;2876;51.738;10.050;2022-12-24T17:53:10;99180.75;;;6.40;100.00
5703;BME280;2876;51.738;10.050;2022-12-24T17:59:12;99190.88;;;6.45;99.80
5703;BME280;2876;51.738;10.050;2022-12-24T18:05:14;99191.81;;;6.29;100.00
5703;BME280;2876;51.738;10.050;2022-12-24T18:11:30;99206.53;;;6.17;100.00
5703;BME280;2876;51.738;10.050;2022-12-24T18:17:33;99197.97;;;6.29;100.00
5703;BME280;2876;51.738;10.050;2022-12-24T18:23:35;99205.75;;;6.39;100.00
5703;BME280;2876;51.738;10.050;2022-12-24T18:29:37;99215.59;;;6.30;100.00
5703;BME280;2876;51.738;10.050;2022-12-24T18:35:42;99214.88;;;6.14;100.00
5703;BME280;2876;51.738;10.050;2022-12-24T18:41:44;99227.16;;;6.23;100.00
5703;BME280;2876;51.738;10.050;2022-12-24T18:47:46;99222.91;;;6.05;100.00
5703;BME280;2876;51.738;10.050;2022-12-24T18:53:49;99216.75;;;6.05;100.00
5703;BME280;2876;51.738;10.050;2022-12-24T18:59:51;99241.53;;;6.05;100.00
5703;BME280;2876;51.738;10.050;2022-12-24T19:05:53;99253.19;;;6.04;100.00
5703;BME280;2876;51.738;10.050;2022-12-24T19:11:54;99246.38;;;6.02;100.00
5703;BME280;2876;51.738;10.050;2022-12-24T19:17:56;99243.22;;;5.90;100.00
5703;BME280;2876;51.738;10.050;2022-12-24T19:23:58;99242.91;;;5.93;100.00
5703;BME280;2876;51.738;10.050;2022-12-24T19:30:01;99234.41;;;5.98;100.00
5703;BME280;2876;51.738;10.050;2022-12-24T19:36:08;99234.41;;;5.90;100.00
5703;BME280;2876;51.738;10.050;2022-12-24T19:42:11;99258.69;;;5.95;100.00
5703;BME280;2876;51.738;10.050;2022-12-24T19:48:12;99254.53;;;6.00;100.00
5703;BME280;2876;51.738;10.050;2022-12-24T19:54:14;99263.94;;;6.19;100.00
5703;BME280;2876;51.738;10.050;2022-12-24T20:00:20;99271.38;;;5.93;100.00
5703;BME280;2876;51.738;10.050;2022-12-24T20:06:26;99262.69;;;5.99;100.00
5703;BME280;2876;51.738;10.050;2022-12-24T20:12:28;99270.06;;;5.72;100.00
5703;BME280;2876;51.738;10.050;2022-12-24T20:18:31;99276.38;;;5.63;100.00
5703;BME280;2876;51.738;10.050;2022-12-24T20:24:33;99276.38;;;5.63;100.00
5703;BME280;2876;51.738;10.050;2022-12-24T20:30:35;99277.09;;;5.32;100.00
5703;BME280;2876;51.738;10.050;2022-12-24T20:36:37;99292.03;;;5.33;100.00
5703;BME280;2876;51.738;10.050;2022-12-24T20:42:39;99281.41;;;5.50;100.00
5703;BME280;2876;51.738;10.050;2022-12-24T20:48:41;99277.75;;;5.10;100.00
5703;BME280;2876;51.738;10.050;2022-12-24T20:54:43;99279.75;;;5.08;100.00
5703;BME280;2876;51.738;10.050;2022-12-24T21:00:46;99292.38;;;5.14;100.00
5703;BME280;2876;51.738;10.050;2022-12-24T21:06:49;99299.69;;;5.12;100.00
5703;BME280;2876;51.738;10.050;2022-12-24T21:12:51;99296.19;;;5.03;100.00
5703;BME280;2876;51.738;10.050;2022-12-24T21:18:58;99296.00;;;4.89;100.00
5703;BME280;2876;51.738;10.050;2022-12-24T21:25:00;99296.66;;;4.74;100.00
5703;BME280;2876;51.738;10.050;2022-12-24T21:31:10;99313.13;;;4.86;100.00
5703;BME280;2876;51.738;10.050;2022-12-24T21:37:12;99334.69;;;4.83;100.00
5703;BME280;2876;51.738;10.050;2022-12-24T21:43:14;99330.25;;;5.00;100.00
5703;BME280;2876;51.738;10.050;2022-12-24T21:49:16;99331.91;;;5.01;100.00
5703;BME280;2876;51.738;10.050;2022-12-24T21:55:37;99332.41;;;5.21;100.00
5703;BME280;2876;51.738;10.050;2022-12-24T22:01:39;99333.09;;;5.31;100.00
5703;BME280;2876;51.738;10.050;2022-12-24T22:07:41;99328.28;;;5.43;100.00
5703;BME280;2876;51.738;10.050;2022-12-24T22:14:02;99327.97;;;5.46;100.00
5703;BME280;2876;51.738;10.050;2022-12-24T22:20:05;99343.06;;;5.53;100.00
5703;BME280;2876;51.738;10.050;2022-12-24T22:26:16;99347.06;;;5.41;100.00
5703;BME280;2876;51.738;10.050;2022-12-24T22:32:18;99357.03;;;5.47;100.00
5703;BME280;2876;51.738;10.050;2022-12-24T22:38:21;99346.53;;;5.54;100.00
5703;BME280;2876;51.738;10.050;2022-12-24T22:44:23;99344.06;;;5.44;100.00
5703;BME280;2876;51.738;10.050;2022-12-24T22:50:25;99340.91;;;5.32;100.00
5703;BME280;2876;51.738;10.050;2022-12-24T22:56:27;99342.41;;;5.35;100.00
5703;BME280;2876;51.738;10.050;2022-12-24T23:02:29;99331.09;;;5.17;100.00
5703;BME280;2876;51.738;10.050;2022-12-24T23:08:35;99327.94;;;5.21;100.00
5703;BME280;2876;51.738;10.050;2022-12-24T23:14:37;99327.25;;;5.03;100.00
5703;BME280;2876;51.738;10.050;2022-12-24T23:21:02;99313.63;;;5.06;100.00
5703;BME280;2876;51.738;10.050;2022-12-24T23:27:04;99313.13;;;4.86;100.00
5703;BME280;2876;51.738;10.050;2022-12-24T23:33:06;99325.13;;;5.15;100.00
5703;BME280;2876;51.738;10.050;2022-12-24T23:39:10;99313.72;;;4.72;100.00
5703;BME280;2876;51.738;10.050;2022-12-24T23:45:12;99313.22;;;4.18;100.00
5703;BME280;2876;51.738;10.050;2022-12-24T23:51:20;99311.13;;;4.29;100.00
5703;BME280;2876;51.738;10.050;2022-12-24T23:57:24;99304.06;;;4.46;100.00
